ミュンヘン の空港の天気 - METARとTAF

ミュンヘン国際空港 ( EDDM / MUC ) - ドイツ ミュンヘン
飛行場実況気象(Metar)
観測時間02/05 20:20 CET (02/05 19:20 UTC)
風向・風速北北東 2m/s
視程9000m
天気現象
全天の8割程度の雲 雲底高度 520m
全天を覆う雲 雲底高度 1400m
気温0℃
湿度100%
気圧1034hPa
METAREDDM 051920Z AUTO 03004KT 9000 BKN017 OVC046 00/M00 Q1034 NOSIG
過去の天気等 Google飛行場航空写真 Wunderground天気予報

過去48時間のMETAR

飛行場予報(TAF)
発表時間: 2/05 18:00 CET (2/05 17:00 UTC)
予報対象時間: 5日19時 CET ~ 7日1時 CET
風向・風速東北東 2m/s
視程9000m
少しの雲 雲底高度 300m
全天の8割程度の雲 雲底高度 610m
5日19時 CET ~ 5日21時 CET に 確率 30% で一時的に
視程3500m
天気現象弱い雪
全天の8割程度の雲 雲底高度 370m
6日5時 CET ~ 6日9時 CET に 確率 30% で一時的に
視程3000m
天気現象散在した霧
6日19時 CET ~ 6日22時 CET に徐々に
風向・風速東 5m/s
TAF EDDM 051700Z 0518/0624 06004KT 9000 FEW010 BKN020
PROB30 TEMPO 0518/0520 3500 -SN BKN012
PROB30 TEMPO 0604/0608 3000 BCFG
BECMG 0618/0621 09009KT